createdAt,value
2019-02-08T00:01:59.391Z,101041.12
2019-02-08T00:04:30.294Z,101040.20
2019-02-08T00:07:01.572Z,101048.64
2019-02-08T00:09:32.966Z,101045.58
2019-02-08T00:12:03.905Z,101050.45
2019-02-08T00:14:34.803Z,101050.01
2019-02-08T00:17:05.746Z,101042.16
2019-02-08T00:19:36.652Z,101045.22
2019-02-08T00:22:08.679Z,101039.98
2019-02-08T00:24:39.615Z,101038.80
2019-02-08T00:27:12.544Z,101038.80
2019-02-08T00:29:43.459Z,101039.75
2019-02-08T00:32:14.411Z,101030.26
2019-02-08T00:34:45.287Z,101036.41
2019-02-08T00:37:16.525Z,101037.30
2019-02-08T00:39:47.425Z,101039.09
2019-02-08T00:42:18.723Z,101041.80
2019-02-08T00:44:50.511Z,101038.82
2019-02-08T00:47:21.441Z,101037.16
2019-02-08T00:49:52.623Z,101037.59
2019-02-08T00:52:23.546Z,101034.63
2019-02-08T00:54:54.456Z,101043.47
2019-02-08T00:57:25.448Z,101045.73
2019-02-08T00:59:56.356Z,101044.92
2019-02-08T01:02:27.361Z,101045.95
2019-02-08T01:04:58.536Z,101043.45
2019-02-08T01:07:29.474Z,101043.70
2019-02-08T01:10:00.454Z,101041.56
2019-02-08T01:12:31.406Z,101031.27
2019-02-08T01:15:02.321Z,101043.98
2019-02-08T01:17:33.320Z,101036.27
2019-02-08T01:20:16.275Z,101042.44
2019-02-08T01:22:47.313Z,101038.13
2019-02-08T01:25:20.116Z,101034.48
2019-02-08T01:27:51.667Z,101040.02
2019-02-08T01:30:24.768Z,101041.02
2019-02-08T01:32:55.809Z,101041.02
2019-02-08T01:35:28.155Z,101041.91
2019-02-08T01:38:00.300Z,101041.38
2019-02-08T01:40:36.707Z,101039.09
2019-02-08T01:43:09.188Z,101040.08
2019-02-08T01:45:40.703Z,101043.00
2019-02-08T01:48:12.004Z,101043.44
2019-02-08T01:50:42.906Z,101046.48
2019-02-08T01:53:13.839Z,101046.78
2019-02-08T01:55:44.757Z,101036.25
2019-02-08T01:58:15.707Z,101045.86
2019-02-08T02:00:46.605Z,101045.06
2019-02-08T02:03:17.637Z,101047.59
2019-02-08T02:05:48.535Z,101040.64
2019-02-08T02:08:19.541Z,101055.80
2019-02-08T02:10:50.456Z,101055.94
2019-02-08T02:13:21.469Z,101042.36
2019-02-08T02:15:52.378Z,101047.52
2019-02-08T02:18:23.302Z,101055.36
2019-02-08T02:20:54.203Z,101058.55
2019-02-08T02:23:25.611Z,101056.32
2019-02-08T02:25:56.464Z,101064.58
2019-02-08T02:28:27.580Z,101066.70
2019-02-08T02:30:58.478Z,101072.73
2019-02-08T02:33:29.419Z,101070.92
2019-02-08T02:36:00.318Z,101069.23
2019-02-08T02:38:31.255Z,101076.21
2019-02-08T02:41:02.149Z,101078.83
2019-02-08T02:43:33.168Z,101085.00
2019-02-08T02:46:04.859Z,101085.19
2019-02-08T02:48:35.770Z,101088.61
2019-02-08T02:51:06.692Z,101093.78
2019-02-08T02:53:37.613Z,101086.02
2019-02-08T02:56:08.521Z,101092.53
2019-02-08T02:58:39.594Z,101086.50
2019-02-08T03:01:10.562Z,101098.27
2019-02-08T03:03:41.497Z,101098.76
2019-02-08T03:06:12.410Z,101099.64
2019-02-08T03:08:43.350Z,101098.41
2019-02-08T03:11:14.264Z,101108.48
2019-02-08T03:13:45.265Z,101115.03
2019-02-08T03:16:16.158Z,101116.81
2019-02-08T03:18:47.091Z,101112.05
2019-02-08T03:21:17.978Z,101125.62
2019-02-08T03:23:48.911Z,101119.08
2019-02-08T03:26:19.815Z,101109.94
2019-02-08T03:28:50.955Z,101111.05
2019-02-08T03:31:21.862Z,101114.42
2019-02-08T03:33:52.785Z,101112.16
2019-02-08T03:36:23.691Z,101118.20
2019-02-08T03:38:54.632Z,101117.78
2019-02-08T03:41:25.535Z,101125.23
2019-02-08T03:43:56.579Z,101128.34
2019-02-08T03:46:29.359Z,101128.34
2019-02-08T03:49:00.280Z,101120.08
2019-02-08T03:51:31.198Z,101133.19
2019-02-08T03:54:02.217Z,101129.15
2019-02-08T03:56:33.123Z,101133.64
2019-02-08T03:59:04.071Z,101133.64
2019-02-08T04:01:35.074Z,101137.48
2019-02-08T04:04:14.744Z,101143.91
2019-02-08T04:06:45.653Z,101142.22
2019-02-08T04:09:16.596Z,101144.83
2019-02-08T04:11:47.493Z,101143.02
2019-02-08T04:14:18.533Z,101150.50
2019-02-08T04:16:49.452Z,101152.31
2019-02-08T04:19:20.383Z,101166.67
2019-02-08T04:21:51.360Z,101161.81
2019-02-08T04:24:29.836Z,101156.17
2019-02-08T04:26:54.960Z,101160.51
2019-02-08T04:29:26.024Z,101167.12
2019-02-08T04:31:56.925Z,101164.20
2019-02-08T04:34:27.857Z,101160.83
2019-02-08T04:36:58.770Z,101161.32
2019-02-08T04:39:29.708Z,101169.05
2019-02-08T04:42:00.616Z,101175.13
2019-02-08T04:44:32.112Z,101182.13
2019-02-08T04:47:03.008Z,101174.76
2019-02-08T04:49:33.930Z,101183.53
2019-02-08T04:52:04.838Z,101186.96
2019-02-08T04:54:38.373Z,101185.33
2019-02-08T04:57:08.350Z,101191.77
2019-02-08T04:59:39.296Z,101193.19
2019-02-08T05:02:10.193Z,101193.98
2019-02-08T05:04:41.129Z,101190.93
2019-02-08T05:07:12.023Z,101185.23
2019-02-08T05:09:42.963Z,101194.12
2019-02-08T05:12:13.864Z,101198.46
2019-02-08T05:14:45.186Z,101202.64
2019-02-08T05:17:16.087Z,101198.22
2019-02-08T05:19:47.031Z,101200.47
2019-02-08T05:22:17.930Z,101198.30
2019-02-08T05:24:48.877Z,101199.11
2019-02-08T05:27:19.774Z,101194.68
2019-02-08T05:29:50.734Z,101195.61
2019-02-08T05:32:21.706Z,101193.32
2019-02-08T05:34:52.634Z,101190.21
2019-02-08T05:37:27.242Z,101198.03
2019-02-08T05:39:58.179Z,101199.78
2019-02-08T05:42:29.075Z,101202.34
2019-02-08T05:45:00.039Z,101205.80
2019-02-08T05:47:31.930Z,101206.14
2019-02-08T05:50:02.864Z,101206.25
2019-02-08T05:52:33.762Z,101208.62
2019-02-08T05:55:07.704Z,101206.32
2019-02-08T05:57:38.587Z,101205.27
2019-02-08T06:00:22.370Z,101207.88
2019-02-08T06:02:53.355Z,101208.12
2019-02-08T06:05:25.571Z,101210.24
2019-02-08T06:07:56.547Z,101207.50
2019-02-08T06:10:27.491Z,101213.97
2019-02-08T06:12:58.383Z,101215.72
2019-02-08T06:15:29.437Z,101216.95
2019-02-08T06:18:00.457Z,101217.38
2019-02-08T06:20:31.394Z,101215.83
2019-02-08T06:23:02.368Z,101227.16
2019-02-08T06:25:33.302Z,101222.37
2019-02-08T06:28:05.112Z,101229.63
2019-02-08T06:30:36.492Z,101227.70
2019-02-08T06:33:07.483Z,101237.23
2019-02-08T06:35:38.523Z,101243.27
2019-02-08T06:38:09.521Z,101236.79
2019-02-08T06:40:42.876Z,101233.86
2019-02-08T06:43:13.782Z,101240.71
2019-02-08T06:45:44.904Z,101236.71
2019-02-08T06:48:16.609Z,101241.52
2019-02-08T06:50:47.525Z,101229.17
2019-02-08T06:53:18.431Z,101236.52
2019-02-08T06:55:53.836Z,101228.10
2019-02-08T06:58:29.592Z,101227.21
2019-02-08T07:01:02.353Z,101231.95
2019-02-08T07:03:37.639Z,101223.78
2019-02-08T07:06:13.291Z,101228.10
2019-02-08T07:08:45.869Z,101232.79
2019-02-08T07:11:24.275Z,101233.52
2019-02-08T07:14:05.798Z,101236.95
2019-02-08T07:16:38.626Z,101250.60
2019-02-08T07:19:11.222Z,101249.38
2019-02-08T07:21:43.781Z,101253.80
2019-02-08T07:24:34.336Z,101258.14
2019-02-08T07:27:07.014Z,101268.61
2019-02-08T07:29:40.174Z,101270.50
2019-02-08T07:32:15.842Z,101278.90
2019-02-08T07:35:06.501Z,101282.75
2019-02-08T07:37:41.914Z,101289.23
2019-02-08T07:40:29.301Z,101283.39
2019-02-08T07:43:05.951Z,101286.80
2019-02-08T07:45:56.359Z,101292.84
2019-02-08T07:48:32.113Z,101290.11
2019-02-08T07:51:04.662Z,101290.11
2019-02-08T07:53:40.080Z,101298.50
2019-02-08T07:56:16.479Z,101298.66
2019-02-08T07:59:07.395Z,101293.31
2019-02-08T08:01:40.626Z,101304.69
2019-02-08T08:04:13.230Z,101307.70
2019-02-08T08:06:45.887Z,101299.54
2019-02-08T08:09:21.416Z,101307.89
2019-02-08T08:11:56.777Z,101312.58
2019-02-08T08:14:29.762Z,101310.24
2019-02-08T08:17:18.549Z,101313.52
2019-02-08T08:20:04.255Z,101314.25
2019-02-08T08:22:39.699Z,101316.43
2019-02-08T08:25:12.578Z,101304.59
2019-02-08T08:27:45.127Z,101312.58
2019-02-08T08:30:23.482Z,101302.73
2019-02-08T08:32:57.368Z,101293.71
2019-02-08T08:35:43.164Z,101301.45
2019-02-08T08:38:44.128Z,101293.81
2019-02-08T08:41:37.541Z,101299.76
2019-02-08T08:44:30.905Z,101291.86
2019-02-08T08:47:24.361Z,101288.20
2019-02-08T08:50:14.255Z,101290.17
2019-02-08T08:52:59.820Z,101291.56
2019-02-08T08:55:42.082Z,101306.02
2019-02-08T08:58:14.934Z,101314.63
2019-02-08T09:00:51.387Z,101308.07
2019-02-08T09:03:30.745Z,101303.55
2019-02-08T09:06:13.561Z,101295.20
2019-02-08T09:08:50.205Z,101296.20
2019-02-08T09:11:25.208Z,101305.36
2019-02-08T09:14:05.086Z,101308.64
2019-02-08T09:16:51.156Z,101299.17
2019-02-08T09:19:53.779Z,101308.30
2019-02-08T09:22:39.323Z,101301.63
2019-02-08T09:25:34.329Z,101307.11
2019-02-08T09:28:10.820Z,101303.28
2019-02-08T09:31:17.809Z,101308.36
2019-02-08T09:34:17.180Z,101297.92
2019-02-08T09:37:10.366Z,101306.05
2019-02-08T09:39:46.917Z,101307.03
2019-02-08T09:42:55.459Z,101308.58
2019-02-08T09:45:44.399Z,101313.81
2019-02-08T09:48:40.712Z,101314.76
2019-02-08T09:51:17.219Z,101320.89
2019-02-08T09:53:54.035Z,101319.50
2019-02-08T09:56:55.279Z,101319.16
2019-02-08T09:59:44.147Z,101321.72
2019-02-08T10:02:29.811Z,101319.50
2019-02-08T10:05:25.943Z,101319.66
2019-02-08T10:08:32.972Z,101327.89
2019-02-08T10:11:32.134Z,101326.45
2019-02-08T10:14:29.986Z,101334.67
2019-02-08T10:17:12.681Z,101329.71
2019-02-08T10:19:58.152Z,101334.23
2019-02-08T10:22:38.003Z,101331.09
2019-02-08T10:25:28.218Z,101334.86
2019-02-08T10:28:17.239Z,101345.23
2019-02-08T10:31:12.169Z,101335.13
2019-02-08T10:34:18.999Z,101335.19
2019-02-08T10:37:21.439Z,101337.03
2019-02-08T10:40:14.578Z,101328.27
2019-02-08T10:43:21.642Z,101333.69
2019-02-08T10:46:01.611Z,101333.75
2019-02-08T10:49:08.545Z,101339.43
2019-02-08T10:52:01.945Z,101340.67
2019-02-08T10:54:53.900Z,101340.75
2019-02-08T10:57:59.568Z,101336.00
2019-02-08T11:01:00.665Z,101324.28
2019-02-08T11:04:01.661Z,101316.24
2019-02-08T11:06:51.896Z,101313.48
2019-02-08T11:09:52.815Z,101310.41
2019-02-08T11:12:49.061Z,101310.07
2019-02-08T11:15:39.354Z,101310.45
2019-02-08T11:18:47.262Z,101311.44
2019-02-08T11:21:18.193Z,101323.77
2019-02-08T11:23:49.099Z,101321.27
2019-02-08T11:26:23.060Z,101311.39
2019-02-08T11:28:52.646Z,101313.73
2019-02-08T11:31:23.584Z,101317.60
2019-02-08T11:33:54.483Z,101311.58
2019-02-08T11:36:25.514Z,101311.69
2019-02-08T11:38:56.426Z,101314.75
2019-02-08T11:41:27.569Z,101317.17
2019-02-08T11:43:58.470Z,101315.21
2019-02-08T11:46:29.613Z,101310.83
2019-02-08T11:49:00.509Z,101318.88
2019-02-08T11:51:31.449Z,101317.72
2019-02-08T11:54:02.349Z,101311.55
2019-02-08T11:56:33.312Z,101326.85
2019-02-08T11:59:04.708Z,101321.37
2019-02-08T12:01:37.284Z,101328.58
2019-02-08T12:04:08.793Z,101330.34
2019-02-08T12:06:39.728Z,101327.81
2019-02-08T12:09:12.941Z,101334.81
2019-02-08T12:11:44.342Z,101334.53
2019-02-08T12:14:15.491Z,101326.30
2019-02-08T12:16:46.420Z,101340.62
2019-02-08T12:19:17.316Z,101342.47
2019-02-08T12:21:48.246Z,101336.53
2019-02-08T12:24:19.152Z,101340.36
2019-02-08T12:26:50.180Z,101338.50
2019-02-08T12:29:21.085Z,101338.78
2019-02-08T12:31:52.062Z,101333.50
2019-02-08T12:34:22.969Z,101333.24
2019-02-08T12:36:53.909Z,101335.09
2019-02-08T12:39:24.810Z,101324.60
2019-02-08T12:41:55.785Z,101336.21
2019-02-08T12:44:26.693Z,101323.84
2019-02-08T12:46:57.630Z,101318.50
2019-02-08T12:49:28.522Z,101332.13
2019-02-08T12:51:59.461Z,101327.06
2019-02-08T12:54:30.380Z,101334.69
2019-02-08T12:57:01.353Z,101322.65
2019-02-08T12:59:32.309Z,101326.72
2019-02-08T13:02:03.220Z,101329.30
2019-02-08T13:04:34.122Z,101329.30
2019-02-08T13:07:05.259Z,101324.28
2019-02-08T13:09:36.166Z,101321.53
2019-02-08T13:12:07.114Z,101326.52
2019-02-08T13:14:38.022Z,101322.83
2019-02-08T13:17:08.950Z,101325.53
2019-02-08T13:19:39.851Z,101306.00
2019-02-08T13:22:10.785Z,101313.61
2019-02-08T13:24:41.691Z,101322.70
2019-02-08T13:27:12.643Z,101323.95
2019-02-08T13:29:43.554Z,101315.34
2019-02-08T13:32:14.493Z,101315.59
2019-02-08T13:34:45.395Z,101316.38
2019-02-08T13:37:16.328Z,101319.21
2019-02-08T13:39:47.239Z,101318.30
2019-02-08T13:42:18.228Z,101313.41
2019-02-08T13:44:49.146Z,101317.77
2019-02-08T13:47:20.190Z,101320.98
2019-02-08T13:49:51.100Z,101323.98
2019-02-08T13:52:22.034Z,101330.81
2019-02-08T13:54:53.052Z,101320.20
2019-02-08T13:57:23.998Z,101322.70
2019-02-08T13:59:54.908Z,101321.92
2019-02-08T14:02:25.853Z,101323.37
2019-02-08T14:04:56.764Z,101324.43
2019-02-08T14:07:27.699Z,101327.11
2019-02-08T14:09:58.603Z,101320.27
2019-02-08T14:12:29.575Z,101329.35
2019-02-08T14:15:00.485Z,101324.60
2019-02-08T14:17:31.415Z,101327.05
2019-02-08T14:20:02.381Z,101336.27
2019-02-08T14:22:33.313Z,101338.34
2019-02-08T14:25:05.625Z,101334.81
2019-02-08T14:27:36.575Z,101341.63
2019-02-08T14:30:18.902Z,101337.30
2019-02-08T14:32:49.817Z,101337.41
2019-02-08T14:35:20.756Z,101342.80
2019-02-08T14:37:51.810Z,101340.09
2019-02-08T14:40:24.607Z,101349.41
2019-02-08T14:42:55.732Z,101344.75
2019-02-08T14:45:26.638Z,101350.02
2019-02-08T14:47:57.571Z,101351.86
2019-02-08T14:50:29.781Z,101352.08
2019-02-08T14:53:00.811Z,101350.88
2019-02-08T14:55:31.711Z,101351.55
2019-02-08T14:58:05.017Z,101356.80
2019-02-08T15:00:35.977Z,101355.14
2019-02-08T15:03:06.913Z,101353.00
2019-02-08T15:05:37.807Z,101346.67
2019-02-08T15:08:08.741Z,101348.06
2019-02-08T15:10:42.637Z,101344.05
2019-02-08T15:13:13.795Z,101346.56
2019-02-08T15:15:44.699Z,101350.44
2019-02-08T15:18:15.610Z,101355.25
2019-02-08T15:20:46.505Z,101356.95
2019-02-08T15:23:17.595Z,101350.37
2019-02-08T15:25:48.492Z,101351.69
2019-02-08T15:28:19.469Z,101354.84
2019-02-08T15:30:50.375Z,101359.19
2019-02-08T15:33:21.333Z,101356.15
2019-02-08T15:35:52.201Z,101355.36
2019-02-08T15:38:23.238Z,101347.09
2019-02-08T15:40:55.648Z,101349.54
2019-02-08T15:43:26.705Z,101346.78
2019-02-08T15:45:59.546Z,101346.75
2019-02-08T15:48:30.572Z,101352.19
2019-02-08T15:51:01.675Z,101354.92
2019-02-08T15:53:32.897Z,101352.20
2019-02-08T15:56:06.993Z,101351.55
2019-02-08T15:58:37.996Z,101348.23
2019-02-08T16:01:10.172Z,101352.48
2019-02-08T16:03:41.212Z,101353.45
2019-02-08T16:06:12.423Z,101356.98
2019-02-08T16:08:43.378Z,101360.40
2019-02-08T16:11:14.312Z,101358.87
2019-02-08T16:13:45.334Z,101364.99
2019-02-08T16:16:16.379Z,101357.66
2019-02-08T16:18:47.382Z,101361.16
2019-02-08T16:21:18.507Z,101364.41
2019-02-08T16:23:49.477Z,101372.28
2019-02-08T16:26:24.205Z,101364.47
2019-02-08T16:28:55.183Z,101364.41
2019-02-08T16:31:26.120Z,101363.89
2019-02-08T16:33:57.195Z,101363.37
2019-02-08T16:36:28.218Z,101367.72
2019-02-08T16:38:59.186Z,101363.50
2019-02-08T16:41:30.192Z,101370.45
2019-02-08T16:44:01.259Z,101368.23
2019-02-08T16:46:33.471Z,101364.92
2019-02-08T16:49:04.744Z,101362.80
2019-02-08T16:51:35.640Z,101357.90
2019-02-08T16:54:06.760Z,101359.56
2019-02-08T16:56:38.546Z,101357.94
2019-02-08T16:59:09.646Z,101357.55
2019-02-08T17:01:40.565Z,101360.98
2019-02-08T17:04:11.575Z,101361.36
2019-02-08T17:06:42.512Z,101354.23
2019-02-08T17:09:14.044Z,101352.48
2019-02-08T17:11:44.957Z,101348.02
2019-02-08T17:14:15.928Z,101349.27
2019-02-08T17:16:46.832Z,101342.31
2019-02-08T17:19:17.781Z,101349.88
2019-02-08T17:21:48.939Z,101346.18
2019-02-08T17:24:19.878Z,101344.52
2019-02-08T17:26:50.775Z,101341.13
2019-02-08T17:29:21.848Z,101348.70
2019-02-08T17:31:52.731Z,101342.00
2019-02-08T17:34:23.663Z,101344.76
2019-02-08T17:36:54.565Z,101337.33
2019-02-08T17:39:25.497Z,101336.28
2019-02-08T17:41:56.412Z,101337.17
2019-02-08T17:44:27.368Z,101339.45
2019-02-08T17:46:58.276Z,101339.77
2019-02-08T17:49:29.307Z,101337.31
2019-02-08T17:52:00.205Z,101325.08
2019-02-08T17:54:31.148Z,101329.12
2019-02-08T17:57:02.141Z,101328.73
2019-02-08T17:59:33.109Z,101323.41
2019-02-08T18:02:04.020Z,101324.89
2019-02-08T18:04:34.963Z,101320.58
2019-02-08T18:07:05.887Z,101327.14
2019-02-08T18:09:36.850Z,101326.72
2019-02-08T18:12:07.768Z,101331.46
2019-02-08T18:14:38.867Z,101323.68
2019-02-08T18:17:09.765Z,101324.16
2019-02-08T18:19:40.698Z,101318.95
2019-02-08T18:22:11.600Z,101321.28
2019-02-08T18:24:42.563Z,101320.77
2019-02-08T18:27:13.467Z,101316.13
2019-02-08T18:29:44.545Z,101315.27
2019-02-08T18:32:15.452Z,101303.01
2019-02-08T18:34:46.372Z,101309.19
2019-02-08T18:37:17.278Z,101314.13
2019-02-08T18:39:48.211Z,101311.02
2019-02-08T18:42:19.110Z,101311.30
2019-02-08T18:44:50.079Z,101304.91
2019-02-08T18:47:20.975Z,101309.19
2019-02-08T18:49:51.928Z,101303.88
2019-02-08T18:52:22.821Z,101304.03
2019-02-08T18:54:53.763Z,101291.02
2019-02-08T18:57:25.451Z,101293.63
2019-02-08T18:59:56.416Z,101290.46
2019-02-08T19:02:27.325Z,101290.91
2019-02-08T19:04:58.277Z,101286.97
2019-02-08T19:07:29.187Z,101291.02
2019-02-08T19:10:00.216Z,101286.27
2019-02-08T19:12:31.082Z,101281.98
2019-02-08T19:15:02.037Z,101284.61
2019-02-08T19:17:33.022Z,101285.06
2019-02-08T19:20:05.146Z,101287.50
2019-02-08T19:22:36.068Z,101283.11
2019-02-08T19:25:09.904Z,101285.29
2019-02-08T19:27:40.806Z,101276.17
2019-02-08T19:30:20.467Z,101276.39
2019-02-08T19:32:51.379Z,101273.38
2019-02-08T19:35:22.318Z,101273.67
2019-02-08T19:37:53.218Z,101262.20
2019-02-08T19:40:27.131Z,101260.13
2019-02-08T19:42:58.043Z,101265.69
2019-02-08T19:45:29.018Z,101262.14
2019-02-08T19:48:00.038Z,101261.86
2019-02-08T19:50:33.754Z,101260.95
2019-02-08T19:53:05.782Z,101257.20
2019-02-08T19:55:36.718Z,101247.25
2019-02-08T19:58:08.523Z,101254.68
2019-02-08T20:00:44.369Z,101260.54
2019-02-08T20:03:15.279Z,101248.03
2019-02-08T20:05:46.210Z,101248.31
2019-02-08T20:08:17.099Z,101237.02
2019-02-08T20:10:49.807Z,101248.48
2019-02-08T20:13:20.720Z,101236.45
2019-02-08T20:15:51.718Z,101237.95
2019-02-08T20:18:22.619Z,101232.73
2019-02-08T20:20:53.570Z,101234.53
2019-02-08T20:23:24.497Z,101227.66
2019-02-08T20:25:55.413Z,101233.83
2019-02-08T20:28:26.315Z,101234.63
2019-02-08T20:30:57.272Z,101228.45
2019-02-08T20:33:28.182Z,101233.83
2019-02-08T20:35:59.115Z,101235.47
2019-02-08T20:38:30.021Z,101241.90
2019-02-08T20:41:00.961Z,101242.66
2019-02-08T20:43:31.868Z,101233.86
2019-02-08T20:46:02.821Z,101240.20
2019-02-08T20:48:33.737Z,101239.61
2019-02-08T20:51:04.680Z,101244.75
2019-02-08T20:53:35.646Z,101239.38
2019-02-08T20:56:06.981Z,101244.95
2019-02-08T20:58:38.799Z,101231.16
2019-02-08T21:01:10.057Z,101231.06
2019-02-08T21:03:40.966Z,101234.36
2019-02-08T21:06:12.006Z,101240.72
2019-02-08T21:08:42.912Z,101236.95
2019-02-08T21:11:13.838Z,101237.58
2019-02-08T21:13:44.743Z,101242.17
2019-02-08T21:16:21.254Z,101233.50
2019-02-08T21:18:52.168Z,101225.12
2019-02-08T21:21:23.097Z,101223.53
2019-02-08T21:23:54.009Z,101218.38
2019-02-08T21:26:24.943Z,101221.06
2019-02-08T21:28:58.078Z,101212.84
2019-02-08T21:31:28.506Z,101215.55
2019-02-08T21:33:59.523Z,101198.07
2019-02-08T21:36:38.589Z,101200.63
2019-02-08T21:39:03.336Z,101192.77
2019-02-08T21:41:34.266Z,101176.20
2019-02-08T21:44:05.367Z,101179.79
2019-02-08T21:46:36.329Z,101176.59
2019-02-08T21:49:07.220Z,101177.61
2019-02-08T21:51:38.143Z,101172.81
2019-02-08T21:54:09.053Z,101162.84
2019-02-08T21:56:39.981Z,101158.91
2019-02-08T21:59:11.993Z,101163.73
2019-02-08T22:01:42.993Z,101158.41
2019-02-08T22:04:14.213Z,101153.25
2019-02-08T22:06:45.162Z,101152.27
2019-02-08T22:09:16.161Z,101151.11
2019-02-08T22:11:47.096Z,101150.28
2019-02-08T22:14:18.002Z,101144.05
2019-02-08T22:16:49.036Z,101144.50
2019-02-08T22:19:19.946Z,101151.05
2019-02-08T22:21:50.894Z,101140.41
2019-02-08T22:24:21.805Z,101140.77
2019-02-08T22:26:52.741Z,101134.75
2019-02-08T22:29:23.644Z,101134.27
2019-02-08T22:31:54.605Z,101141.56
2019-02-08T22:34:25.508Z,101134.56
2019-02-08T22:36:56.455Z,101123.31
2019-02-08T22:39:27.364Z,101127.14
2019-02-08T22:41:58.297Z,101124.14
2019-02-08T22:44:29.203Z,101119.98
2019-02-08T22:47:00.161Z,101119.54
2019-02-08T22:49:31.088Z,101124.34
2019-02-08T22:52:02.022Z,101125.23
2019-02-08T22:54:32.947Z,101110.02
2019-02-08T22:57:03.874Z,101114.30
2019-02-08T22:59:34.789Z,101114.33
2019-02-08T23:02:07.533Z,101119.19
2019-02-08T23:04:38.440Z,101118.84
2019-02-08T23:07:09.582Z,101115.45
2019-02-08T23:09:40.488Z,101114.14
2019-02-08T23:12:11.427Z,101108.61
2019-02-08T23:14:42.327Z,101109.02
2019-02-08T23:17:13.283Z,101101.03
2019-02-08T23:19:44.182Z,101095.86
2019-02-08T23:22:15.121Z,101091.41
2019-02-08T23:24:46.197Z,101091.31
2019-02-08T23:27:17.126Z,101090.55
2019-02-08T23:29:48.035Z,101079.78
2019-02-08T23:32:18.987Z,101083.71
2019-02-08T23:34:49.891Z,101073.52
2019-02-08T23:37:25.885Z,101069.93
2019-02-08T23:42:54.304Z,101056.99
2019-02-08T23:45:25.209Z,101045.96
2019-02-08T23:47:59.676Z,101040.66
2019-02-08T23:50:30.579Z,101045.38
2019-02-08T23:53:01.554Z,101038.31
2019-02-08T23:55:32.454Z,101037.97
2019-02-08T23:58:03.381Z,101025.72
